createdAt,value
2023-05-19T00:00:14.842Z,93.89
2023-05-19T00:02:44.228Z,93.95
2023-05-19T00:05:18.674Z,94.00
2023-05-19T00:07:48.286Z,93.90
2023-05-19T00:10:18.506Z,93.92
2023-05-19T00:12:47.096Z,94.10
2023-05-19T00:15:16.367Z,94.13
2023-05-19T00:17:44.825Z,94.16
2023-05-19T00:20:15.888Z,94.10
2023-05-19T00:22:45.066Z,94.13
2023-05-19T00:25:13.429Z,94.09
2023-05-19T00:27:41.712Z,94.17
2023-05-19T00:30:10.824Z,94.14
2023-05-19T00:32:39.155Z,94.07
2023-05-19T00:35:08.319Z,94.06
2023-05-19T00:37:37.862Z,94.06
2023-05-19T00:40:07.704Z,94.06
2023-05-19T00:42:36.136Z,94.08
2023-05-19T00:45:04.745Z,94.14
2023-05-19T00:47:33.055Z,94.10
2023-05-19T00:50:01.340Z,94.11
2023-05-19T00:52:29.943Z,94.09
2023-05-19T00:54:59.670Z,94.09
2023-05-19T00:57:28.255Z,94.19
2023-05-19T00:59:56.910Z,94.24
2023-05-19T01:02:25.353Z,94.24
2023-05-19T01:04:55.547Z,94.23
2023-05-19T01:07:25.517Z,94.20
2023-05-19T01:09:53.829Z,94.13
2023-05-19T01:12:23.596Z,94.08
2023-05-19T01:14:52.231Z,94.09
2023-05-19T01:17:25.478Z,94.14
2023-05-19T01:20:05.175Z,94.18
2023-05-19T01:22:55.072Z,94.26
2023-05-19T01:25:54.588Z,94.24
2023-05-19T01:29:08.834Z,94.19
2023-05-19T01:31:42.152Z,94.16
2023-05-19T01:34:13.413Z,94.02
2023-05-19T01:36:44.939Z,94.00
2023-05-19T01:39:15.463Z,93.96
2023-05-19T01:41:45.741Z,93.89
2023-05-19T01:44:18.115Z,93.78
2023-05-19T01:46:48.271Z,93.72
2023-05-19T01:49:16.487Z,93.62
2023-05-19T01:51:47.688Z,93.59
2023-05-19T01:54:15.981Z,93.56
2023-05-19T01:56:51.324Z,93.53
2023-05-19T01:59:38.759Z,93.56
2023-05-19T02:02:17.056Z,93.67
2023-05-19T02:04:52.218Z,93.74
2023-05-19T02:07:28.753Z,93.73
2023-05-19T02:10:05.801Z,93.89
2023-05-19T02:12:37.797Z,93.83
2023-05-19T02:15:08.732Z,93.79
2023-05-19T02:17:42.646Z,93.55
2023-05-19T02:20:12.287Z,93.38
2023-05-19T02:22:41.082Z,93.41
2023-05-19T02:25:10.383Z,93.27
2023-05-19T02:27:39.942Z,93.12
2023-05-19T02:30:10.115Z,93.08
2023-05-19T02:32:40.076Z,92.97
2023-05-19T02:35:09.129Z,92.85
2023-05-19T02:37:37.401Z,92.64
2023-05-19T02:40:06.829Z,92.49
2023-05-19T02:42:35.207Z,92.46
2023-05-19T02:45:08.292Z,92.45
2023-05-19T02:47:37.276Z,92.49
2023-05-19T02:50:09.059Z,92.54
2023-05-19T02:52:37.218Z,92.52
2023-05-19T02:55:08.179Z,92.44
2023-05-19T02:57:36.510Z,92.48
2023-05-19T03:00:07.041Z,92.37
2023-05-19T03:02:35.605Z,92.30
2023-05-19T03:05:04.258Z,92.27
2023-05-19T03:07:34.013Z,92.29
2023-05-19T03:10:04.007Z,92.34
2023-05-19T03:12:32.617Z,92.28
2023-05-19T03:15:01.109Z,92.30
2023-05-19T03:17:33.872Z,92.36
2023-05-19T03:20:02.758Z,92.40
2023-05-19T03:22:30.939Z,92.44
2023-05-19T03:25:00.618Z,92.46
2023-05-19T03:27:28.975Z,92.40
2023-05-19T03:29:57.336Z,92.48
2023-05-19T03:32:25.900Z,92.43
2023-05-19T03:34:54.330Z,92.39
2023-05-19T03:37:22.612Z,92.40
2023-05-19T03:39:50.832Z,92.49
2023-05-19T03:42:20.458Z,92.59
2023-05-19T03:44:48.778Z,92.45
2023-05-19T03:47:17.227Z,92.38
2023-05-19T03:49:50.229Z,92.15
2023-05-19T03:52:36.867Z,92.04
2023-05-19T03:55:14.832Z,91.75
2023-05-19T03:57:44.651Z,91.47
2023-05-19T04:00:14.139Z,91.52
2023-05-19T04:02:42.662Z,91.72
2023-05-19T04:05:15.552Z,91.74
2023-05-19T04:07:45.235Z,91.69
2023-05-19T04:10:14.049Z,91.67
2023-05-19T04:12:42.303Z,91.78
2023-05-19T04:15:12.999Z,91.93
2023-05-19T04:17:42.133Z,92.10
2023-05-19T04:20:12.229Z,92.24
2023-05-19T04:22:40.407Z,92.32
2023-05-19T04:25:09.615Z,92.25
2023-05-19T04:27:39.112Z,92.30
2023-05-19T04:30:09.532Z,92.38
2023-05-19T04:32:39.784Z,92.43
2023-05-19T04:35:08.671Z,92.53
2023-05-19T04:37:38.499Z,92.61
2023-05-19T04:40:11.322Z,92.49
2023-05-19T04:42:42.757Z,92.35
2023-05-19T04:45:14.265Z,92.15
2023-05-19T04:47:48.252Z,92.14
2023-05-19T04:50:17.404Z,91.97
2023-05-19T04:52:46.666Z,92.09
2023-05-19T04:55:16.064Z,91.88
2023-05-19T04:57:45.106Z,91.79
2023-05-19T05:00:14.801Z,91.90
2023-05-19T05:03:05.513Z,92.07
2023-05-19T05:05:34.501Z,91.90
2023-05-19T05:08:03.274Z,91.94
2023-05-19T05:10:36.788Z,91.94
2023-05-19T05:13:05.478Z,91.85
2023-05-19T05:15:34.158Z,91.74
2023-05-19T05:18:05.938Z,91.71
2023-05-19T05:20:35.076Z,91.26
2023-05-19T05:23:04.121Z,90.98
2023-05-19T05:25:34.698Z,90.88
2023-05-19T05:28:05.330Z,91.00
2023-05-19T05:30:37.665Z,91.04
2023-05-19T05:33:10.257Z,91.05
2023-05-19T05:35:40.349Z,90.91
2023-05-19T05:38:11.641Z,90.73
2023-05-19T05:40:40.582Z,90.51
2023-05-19T05:43:11.931Z,91.30
2023-05-19T05:45:46.804Z,91.01
2023-05-19T05:48:17.320Z,90.81
2023-05-19T05:50:47.038Z,90.93
2023-05-19T05:53:20.694Z,90.18
2023-05-19T05:55:53.664Z,90.52
2023-05-19T05:58:24.422Z,90.47
2023-05-19T06:00:57.244Z,90.86
2023-05-19T06:03:28.532Z,90.24
2023-05-19T06:06:00.500Z,89.87
2023-05-19T06:08:28.982Z,89.73
2023-05-19T06:10:58.368Z,90.08
2023-05-19T06:13:28.053Z,89.73
2023-05-19T06:15:57.765Z,88.73
2023-05-19T06:18:33.872Z,88.84
2023-05-19T06:21:03.441Z,88.69
2023-05-19T06:23:32.592Z,87.52
2023-05-19T06:26:03.547Z,87.71
2023-05-19T06:28:32.147Z,87.05
2023-05-19T06:31:00.492Z,85.90
2023-05-19T06:33:44.493Z,88.09
2023-05-19T06:36:13.987Z,87.18
2023-05-19T06:38:44.414Z,86.23
2023-05-19T06:41:14.500Z,86.64
2023-05-19T06:43:43.674Z,85.50
2023-05-19T06:46:17.887Z,86.37
2023-05-19T06:48:47.844Z,88.41
2023-05-19T06:51:21.877Z,87.57
2023-05-19T06:53:54.935Z,86.71
2023-05-19T06:56:24.535Z,86.70
2023-05-19T06:58:52.974Z,85.97
2023-05-19T07:01:26.667Z,87.03
2023-05-19T07:03:58.617Z,85.53
2023-05-19T07:06:27.332Z,85.04
2023-05-19T07:08:55.793Z,85.32
2023-05-19T07:11:26.447Z,82.44
2023-05-19T07:13:55.163Z,84.02
2023-05-19T07:16:28.559Z,85.02
2023-05-19T07:18:58.331Z,85.76
2023-05-19T07:21:26.665Z,83.57
2023-05-19T07:23:54.913Z,84.06
2023-05-19T07:26:23.817Z,85.47
2023-05-19T07:28:52.614Z,86.46
2023-05-19T07:31:21.054Z,84.36
2023-05-19T07:33:49.559Z,84.08
2023-05-19T07:36:19.659Z,83.86
2023-05-19T07:38:48.036Z,83.92
2023-05-19T07:41:16.339Z,82.18
2023-05-19T07:43:44.659Z,82.68
2023-05-19T07:46:12.966Z,83.54
2023-05-19T07:48:41.325Z,83.96
2023-05-19T07:51:10.278Z,81.90
2023-05-19T07:53:40.044Z,81.79
2023-05-19T07:56:08.301Z,82.26
2023-05-19T07:58:36.517Z,82.70
2023-05-19T08:01:05.114Z,82.15
2023-05-19T08:03:33.631Z,83.51
2023-05-19T08:06:01.930Z,82.51
2023-05-19T08:08:30.273Z,84.88
2023-05-19T08:11:02.835Z,82.71
2023-05-19T08:13:31.498Z,84.42
2023-05-19T08:16:00.894Z,81.09
2023-05-19T08:18:29.566Z,83.65
2023-05-19T08:20:59.982Z,83.27
2023-05-19T08:23:28.286Z,81.48
2023-05-19T08:25:59.901Z,80.11
2023-05-19T08:28:28.146Z,79.84
2023-05-19T08:30:56.370Z,79.93
2023-05-19T08:33:24.642Z,77.56
2023-05-19T08:35:53.030Z,76.81
2023-05-19T08:38:21.384Z,77.40
2023-05-19T08:40:49.951Z,76.55
2023-05-19T08:43:19.697Z,76.77
2023-05-19T08:45:48.401Z,76.49
2023-05-19T08:48:20.479Z,76.48
2023-05-19T08:50:56.427Z,78.24
2023-05-19T08:53:33.940Z,76.96
2023-05-19T08:56:13.259Z,76.68
2023-05-19T08:58:44.330Z,77.74
2023-05-19T09:01:16.988Z,76.83
2023-05-19T09:03:46.618Z,75.49
2023-05-19T09:06:15.057Z,75.50
2023-05-19T09:08:43.931Z,75.12
2023-05-19T09:11:12.302Z,73.99
2023-05-19T09:13:40.621Z,74.92
2023-05-19T09:16:10.608Z,73.75
2023-05-19T09:18:41.219Z,71.82
2023-05-19T09:21:11.288Z,73.86
2023-05-19T09:23:39.627Z,74.50
2023-05-19T09:26:10.941Z,74.87
2023-05-19T09:28:39.180Z,75.77
2023-05-19T09:31:09.048Z,73.03
2023-05-19T09:33:39.706Z,73.19
2023-05-19T09:36:09.295Z,70.56
2023-05-19T09:38:39.039Z,70.66
2023-05-19T09:41:08.941Z,73.95
2023-05-19T09:43:37.680Z,72.32
2023-05-19T09:46:06.772Z,70.18
2023-05-19T09:48:36.576Z,71.61
2023-05-19T09:51:10.498Z,70.80
2023-05-19T09:53:39.124Z,72.93
2023-05-19T09:56:09.878Z,71.26
2023-05-19T09:58:43.239Z,66.20
2023-05-19T10:01:11.553Z,70.37
2023-05-19T10:03:41.329Z,67.04
2023-05-19T10:06:12.102Z,68.39
2023-05-19T10:08:42.475Z,66.93
2023-05-19T10:11:12.263Z,69.74
2023-05-19T10:13:41.126Z,68.16
2023-05-19T10:16:10.732Z,70.37
2023-05-19T10:18:40.104Z,68.38
2023-05-19T10:21:11.828Z,68.66
2023-05-19T10:23:40.142Z,65.73
2023-05-19T10:26:09.312Z,63.90
2023-05-19T10:28:40.803Z,63.89
2023-05-19T10:31:12.616Z,64.50
2023-05-19T10:33:58.269Z,66.64
2023-05-19T10:36:44.390Z,64.77
2023-05-19T10:39:18.384Z,66.47
2023-05-19T10:41:58.897Z,66.96
2023-05-19T10:44:40.999Z,67.68
2023-05-19T10:47:12.452Z,67.50
2023-05-19T10:49:42.205Z,66.84
2023-05-19T10:52:26.948Z,67.60
2023-05-19T10:54:55.696Z,64.66
2023-05-19T10:57:30.759Z,64.04
2023-05-19T11:00:00.768Z,66.18
2023-05-19T11:02:47.691Z,63.89
2023-05-19T11:05:18.587Z,61.81
2023-05-19T11:08:02.468Z,62.20
2023-05-19T11:10:31.117Z,63.43
2023-05-19T11:12:59.664Z,63.86
2023-05-19T11:15:29.209Z,65.52
2023-05-19T11:17:57.933Z,60.86
2023-05-19T11:20:27.234Z,60.99
2023-05-19T11:23:10.565Z,61.75
2023-05-19T11:25:48.115Z,62.56
2023-05-19T11:28:21.193Z,67.99
2023-05-19T11:30:57.873Z,65.55
2023-05-19T11:33:28.006Z,65.57
2023-05-19T11:35:59.241Z,62.84
2023-05-19T11:38:30.411Z,62.90
2023-05-19T11:40:59.213Z,63.09
2023-05-19T11:43:27.904Z,59.85
2023-05-19T11:45:56.386Z,62.09
2023-05-19T11:48:25.865Z,61.76
2023-05-19T11:50:54.546Z,64.01
2023-05-19T11:53:22.856Z,61.47
2023-05-19T11:55:52.712Z,61.56
2023-05-19T11:58:27.289Z,62.78
2023-05-19T12:00:55.597Z,61.08
2023-05-19T12:03:28.779Z,61.84
2023-05-19T12:05:57.894Z,61.32
2023-05-19T12:08:27.310Z,65.73
2023-05-19T12:10:57.422Z,64.07
2023-05-19T12:13:26.441Z,60.72
2023-05-19T12:16:02.392Z,60.52
2023-05-19T12:18:32.723Z,58.49
2023-05-19T12:21:01.392Z,60.33
2023-05-19T12:23:30.813Z,59.98
2023-05-19T12:26:01.048Z,59.02
2023-05-19T12:28:31.462Z,60.88
2023-05-19T12:30:59.960Z,59.28
2023-05-19T12:33:28.450Z,59.11
2023-05-19T12:35:56.795Z,59.23
2023-05-19T12:38:25.249Z,59.46
2023-05-19T12:40:53.636Z,57.18
2023-05-19T12:43:24.210Z,58.07
2023-05-19T12:45:52.842Z,60.57
2023-05-19T12:48:24.111Z,58.63
2023-05-19T12:50:55.734Z,58.27
2023-05-19T12:53:27.314Z,61.34
2023-05-19T12:55:55.683Z,60.22
2023-05-19T12:58:25.576Z,58.40
2023-05-19T13:01:00.025Z,58.26
2023-05-19T13:03:28.574Z,59.21
2023-05-19T13:05:56.858Z,59.04
2023-05-19T13:08:25.785Z,60.13
2023-05-19T13:10:54.693Z,58.73
2023-05-19T13:13:22.886Z,62.08
2023-05-19T13:15:52.563Z,58.96
2023-05-19T13:18:20.844Z,58.41
2023-05-19T13:20:50.345Z,58.11
2023-05-19T13:23:19.485Z,57.38
2023-05-19T13:25:47.786Z,58.58
2023-05-19T13:28:16.182Z,59.54
2023-05-19T13:30:45.925Z,59.96
2023-05-19T13:33:15.766Z,55.80
2023-05-19T13:35:44.208Z,60.15
2023-05-19T13:38:12.573Z,55.93
2023-05-19T13:40:41.652Z,58.50
2023-05-19T13:43:10.220Z,57.42
2023-05-19T13:45:38.806Z,58.05
2023-05-19T13:48:08.656Z,55.27
2023-05-19T13:50:38.343Z,57.56
2023-05-19T13:53:06.705Z,56.16
2023-05-19T13:55:35.100Z,55.59
2023-05-19T13:58:03.678Z,54.76
2023-05-19T14:00:33.185Z,56.67
2023-05-19T14:03:06.071Z,54.04
2023-05-19T14:05:34.735Z,54.90
2023-05-19T14:08:05.757Z,54.14
2023-05-19T14:10:37.208Z,56.02
2023-05-19T14:13:29.546Z,53.78
2023-05-19T14:15:53.993Z,53.82
2023-05-19T14:18:22.425Z,55.05
2023-05-19T14:20:50.643Z,55.42
2023-05-19T14:23:21.741Z,55.18
2023-05-19T14:25:50.226Z,56.13
2023-05-19T14:28:18.837Z,55.69
2023-05-19T14:30:47.835Z,57.38
2023-05-19T14:33:20.531Z,57.16
2023-05-19T14:35:49.967Z,57.80
2023-05-19T14:38:18.511Z,58.12
2023-05-19T14:40:48.566Z,59.08
2023-05-19T14:43:18.862Z,56.21
2023-05-19T14:45:47.127Z,54.85
2023-05-19T14:48:15.903Z,55.23
2023-05-19T14:50:44.338Z,56.01
2023-05-19T14:53:12.582Z,57.49
2023-05-19T14:55:40.924Z,55.80
2023-05-19T14:58:27.011Z,58.01
2023-05-19T15:00:59.103Z,59.24
2023-05-19T15:03:27.446Z,56.24
2023-05-19T15:05:55.766Z,56.39
2023-05-19T15:08:24.044Z,57.96
2023-05-19T15:10:52.528Z,58.63
2023-05-19T15:13:22.350Z,57.27
2023-05-19T15:16:01.679Z,59.72
2023-05-19T15:18:37.005Z,60.51
2023-05-19T15:21:05.785Z,57.62
2023-05-19T15:23:33.942Z,56.60
2023-05-19T15:26:02.304Z,56.61
2023-05-19T15:28:32.318Z,56.43
2023-05-19T15:31:00.853Z,56.59
2023-05-19T15:33:29.360Z,58.37
2023-05-19T15:35:58.401Z,58.23
2023-05-19T15:38:28.503Z,59.06
2023-05-19T15:40:58.240Z,60.77
2023-05-19T15:43:26.480Z,63.56
2023-05-19T15:45:56.333Z,61.84
2023-05-19T15:48:24.836Z,62.48
2023-05-19T15:50:53.161Z,61.63
2023-05-19T15:53:21.447Z,62.29
2023-05-19T15:55:49.776Z,61.59
2023-05-19T15:58:18.271Z,61.95
2023-05-19T16:00:46.530Z,63.22
2023-05-19T16:03:16.321Z,62.42
2023-05-19T16:05:44.642Z,62.97
2023-05-19T16:08:12.872Z,63.62
2023-05-19T16:10:41.294Z,64.88
2023-05-19T16:13:09.819Z,64.31
2023-05-19T16:15:38.243Z,64.45
2023-05-19T16:18:06.941Z,65.57
2023-05-19T16:20:36.872Z,65.22
2023-05-19T16:23:05.267Z,66.08
2023-05-19T16:25:35.670Z,66.91
2023-05-19T16:28:04.144Z,65.96
2023-05-19T16:30:32.820Z,67.41
2023-05-19T16:33:01.476Z,67.66
2023-05-19T16:35:31.131Z,67.83
2023-05-19T16:38:01.065Z,67.17
2023-05-19T16:40:30.989Z,67.60
2023-05-19T16:42:59.638Z,67.84
2023-05-19T16:45:28.225Z,68.11
2023-05-19T16:47:56.781Z,68.01
2023-05-19T16:50:25.280Z,67.68
2023-05-19T16:52:53.663Z,67.93
2023-05-19T16:55:25.551Z,68.28
2023-05-19T16:57:53.881Z,68.60
2023-05-19T17:00:22.385Z,68.77
2023-05-19T17:02:50.855Z,68.77
2023-05-19T17:05:19.562Z,68.65
2023-05-19T17:07:47.862Z,69.12
2023-05-19T17:10:17.565Z,69.70
2023-05-19T17:12:47.838Z,69.35
2023-05-19T17:15:16.924Z,69.58
2023-05-19T17:17:45.202Z,70.04
2023-05-19T17:20:14.606Z,69.94
2023-05-19T17:22:43.482Z,69.79
2023-05-19T17:25:11.946Z,69.91
2023-05-19T17:27:40.278Z,70.15
2023-05-19T17:30:11.112Z,70.08
2023-05-19T17:32:39.805Z,70.11
2023-05-19T17:35:09.271Z,70.14
2023-05-19T17:37:37.733Z,70.59
2023-05-19T17:40:07.141Z,71.21
2023-05-19T17:42:35.454Z,71.06
2023-05-19T17:45:07.832Z,71.62
2023-05-19T17:47:37.790Z,71.42
2023-05-19T17:50:07.009Z,72.04
2023-05-19T17:52:36.345Z,72.76
2023-05-19T17:55:05.870Z,72.60
2023-05-19T17:57:37.219Z,73.16
2023-05-19T18:00:07.587Z,73.69
2023-05-19T18:02:39.128Z,74.25
2023-05-19T18:05:09.274Z,75.35
2023-05-19T18:07:40.251Z,76.30
2023-05-19T18:10:10.780Z,76.66
2023-05-19T18:12:39.110Z,76.57
2023-05-19T18:15:08.331Z,76.33
2023-05-19T18:17:38.087Z,75.63
2023-05-19T18:20:07.525Z,75.69
2023-05-19T18:22:35.990Z,76.37
2023-05-19T18:25:04.439Z,76.95
2023-05-19T18:27:33.587Z,77.21
2023-05-19T18:30:01.988Z,77.72
2023-05-19T18:32:30.418Z,77.89
2023-05-19T18:35:00.127Z,78.10
2023-05-19T18:37:28.909Z,78.43
2023-05-19T18:39:57.608Z,78.54
2023-05-19T18:42:25.996Z,79.01
2023-05-19T18:44:54.454Z,79.40
2023-05-19T18:47:25.417Z,79.61
2023-05-19T18:49:53.841Z,79.79
2023-05-19T18:52:23.910Z,79.66
2023-05-19T18:54:52.370Z,79.63
2023-05-19T18:57:21.012Z,79.49
2023-05-19T18:59:50.152Z,79.42
2023-05-19T19:02:18.512Z,79.87
2023-05-19T19:04:47.083Z,80.57
2023-05-19T19:07:15.547Z,81.16
2023-05-19T19:09:49.286Z,81.98
2023-05-19T19:12:19.617Z,82.60
2023-05-19T19:14:48.621Z,82.74
2023-05-19T19:17:17.251Z,82.56
2023-05-19T19:19:45.752Z,82.46
2023-05-19T19:22:14.865Z,82.33
2023-05-19T19:24:46.851Z,82.00
2023-05-19T19:27:17.857Z,82.01
2023-05-19T19:29:46.339Z,82.12
2023-05-19T19:32:14.983Z,82.15
2023-05-19T19:34:43.580Z,82.33
2023-05-19T19:37:11.867Z,82.48
2023-05-19T19:39:40.625Z,82.72
2023-05-19T19:42:10.489Z,82.88
2023-05-19T19:44:41.184Z,83.33
2023-05-19T19:47:11.665Z,83.35
2023-05-19T19:49:40.046Z,83.45
2023-05-19T19:52:08.340Z,83.48
2023-05-19T19:54:36.786Z,83.40
2023-05-19T19:57:05.726Z,83.51
2023-05-19T19:59:37.867Z,83.38
2023-05-19T20:02:06.621Z,83.43
2023-05-19T20:04:35.339Z,83.39
2023-05-19T20:07:03.933Z,83.34
2023-05-19T20:09:32.610Z,83.25
2023-05-19T20:12:01.498Z,83.58
2023-05-19T20:14:30.288Z,83.05
2023-05-19T20:17:00.381Z,82.75
2023-05-19T20:19:29.789Z,83.50
2023-05-19T20:21:58.225Z,83.55
2023-05-19T20:24:26.690Z,84.42
2023-05-19T20:26:55.763Z,84.86
2023-05-19T20:29:24.353Z,84.84
2023-05-19T20:31:53.645Z,85.12
2023-05-19T20:34:24.722Z,85.46
2023-05-19T20:36:53.248Z,85.69
2023-05-19T20:39:21.489Z,86.02
2023-05-19T20:41:50.141Z,86.38
2023-05-19T20:44:18.694Z,86.77
2023-05-19T20:46:47.277Z,86.90
2023-05-19T20:49:15.606Z,87.01
2023-05-19T20:51:45.496Z,87.30
2023-05-19T20:54:13.841Z,87.44
2023-05-19T20:56:44.217Z,87.70
2023-05-19T20:59:12.607Z,87.94
2023-05-19T21:01:41.226Z,88.04
2023-05-19T21:04:09.707Z,87.93
2023-05-19T21:06:38.436Z,87.66
2023-05-19T21:09:08.082Z,87.41
2023-05-19T21:11:36.351Z,87.15
2023-05-19T21:14:05.166Z,86.92
2023-05-19T21:16:34.147Z,86.77
2023-05-19T21:19:02.942Z,86.66
2023-05-19T21:21:31.760Z,86.27
2023-05-19T21:24:00.246Z,86.05
2023-05-19T21:26:29.872Z,85.96
2023-05-19T21:28:58.215Z,86.03
2023-05-19T21:31:26.497Z,86.21
2023-05-19T21:33:54.818Z,86.05
2023-05-19T21:36:23.243Z,85.69
2023-05-19T21:38:51.706Z,85.81
2023-05-19T21:41:19.991Z,85.94
2023-05-19T21:43:49.662Z,85.92
2023-05-19T21:46:18.069Z,86.18
2023-05-19T21:48:46.379Z,86.11
2023-05-19T21:51:14.662Z,86.09
2023-05-19T21:53:42.907Z,86.11
2023-05-19T21:56:11.300Z,86.22
2023-05-19T21:58:39.718Z,85.87
2023-05-19T22:01:09.811Z,85.85
2023-05-19T22:03:38.110Z,86.30
2023-05-19T22:06:07.652Z,86.48
2023-05-19T22:08:35.894Z,86.48
2023-05-19T22:11:04.178Z,86.09
2023-05-19T22:13:32.510Z,86.20
2023-05-19T22:16:00.893Z,86.23
2023-05-19T22:18:30.550Z,86.16
2023-05-19T22:20:59.006Z,86.31
2023-05-19T22:23:27.296Z,86.53
2023-05-19T22:25:55.581Z,86.81
2023-05-19T22:28:23.800Z,86.91
2023-05-19T22:30:52.085Z,87.21
2023-05-19T22:33:20.299Z,87.24
2023-05-19T22:35:50.074Z,86.83
2023-05-19T22:38:18.227Z,86.70
2023-05-19T22:40:46.615Z,86.74
2023-05-19T22:43:15.063Z,86.75
2023-05-19T22:45:43.402Z,86.56
2023-05-19T22:48:11.887Z,86.56
2023-05-19T22:50:40.140Z,86.20
2023-05-19T22:53:09.803Z,85.72
2023-05-19T22:55:38.038Z,84.99
2023-05-19T22:58:06.880Z,84.26
2023-05-19T23:00:35.130Z,84.00
2023-05-19T23:03:03.466Z,83.83
2023-05-19T23:05:32.018Z,83.45
2023-05-19T23:08:00.580Z,83.60
2023-05-19T23:10:30.161Z,84.34
2023-05-19T23:12:58.405Z,84.72
2023-05-19T23:15:26.834Z,85.02
2023-05-19T23:17:55.255Z,85.22
2023-05-19T23:20:23.597Z,85.34
2023-05-19T23:22:51.807Z,85.55
2023-05-19T23:25:20.126Z,85.82
2023-05-19T23:27:49.810Z,86.06
2023-05-19T23:30:18.170Z,85.79
2023-05-19T23:32:46.699Z,85.65
2023-05-19T23:35:17.277Z,85.29
2023-05-19T23:37:45.698Z,85.11
2023-05-19T23:40:14.440Z,85.12
2023-05-19T23:42:44.417Z,85.06
2023-05-19T23:45:14.305Z,85.00
2023-05-19T23:47:42.561Z,84.98
2023-05-19T23:50:11.856Z,84.87
2023-05-19T23:52:42.067Z,84.79
2023-05-19T23:55:12.717Z,84.85
2023-05-19T23:57:41.035Z,84.85
